Kalaheo, HI

1:04 PM HST on June 25, 2017 (GMT -1000)
Wheeler Army Air Field | | Change Station

Elev 837 ft 21.48 °N, 158.04 °W | Updated 6 minutes ago

Partly Cloudy
Partly Cloudy
81 °F
Feels Like 84 °F
N
0
Wind Variable Wind from North

Today
High -- | Low -- °F
--% Chance of Precip.
Yesterday
High -- | Low -- °F
Precip. -- in
Pressure 30.00 in
Visibility 10.0 miles
Clouds Overcast 3700 ft
Heat Index 84 °F
Dew Point 68 °F
Humidity 63%
Rainfall 0.00 in
Snow Depth Not available.
5:56 AM 7:25 PM
Waxing Crescent, 5% visible
METAR PHHI 252258Z AUTO 00000KT 10SM OVC037 27/20 A3003 RMK AO2 SLP159 T02740198 $
Pressure 30.00 in
Visibility 10.0 miles
Clouds Overcast 3700 ft
Heat Index 84 °F
Dew Point 68 °F
Humidity 63%
Rainfall 0.00 in
Snow Depth Not available.
5:56 AM 7:25 PM
Waxing Crescent, 5% visible
METAR PHHI 252258Z AUTO 00000KT 10SM OVC037 27/20 A3003 RMK AO2 SLP159 T02740198 $

Get Severe Weather Alerts

Thanks for signing up!

Be on the lookout for a verification email in your inbox.

You'll start receiving the daily forecast at 6 AM.

×

10-Day Weather Forecast

Almanac

Astronomy

Jun. 25, 2017 Rise Set
Actual Time
Civil Twilight
Nautical Twilight
Astronomical Twilight
Moon
Length of Visible Light
Length of Day
Tomorrow will be .
, % of the Moon is Illuminated

Today's Extremes

State Highs State Lows

Community

WunderPhotos

Category 6

Welcome to Category 6. This is the collective home for Weather Underground's featured writeups by Dr. Jeff Masters (right), Bob Henson (left), Chris Burt, and other regular contributors.

Nearby

Air Quality

  Air Quality AQ Index Pollutant
Not available.

Snow Depth

Station Depth Elevation

Earthquake Activity

City Distance Mag. Time & Date
Minimum magnitude displayed is 2.5.

Coastal Water Temperatures

Place Temperature

Stations

Nearby Weather Stations

Station Location Temp. Windchill Dew Point Humidity Wind Precip. Elev Updated Type
                   

Watches & Warnings

There are currently no watches in effect.